Time;durP1;ratioP1;P1;durP2;ratioP2;P2;SDS_P1;SDS_P2;PMS_P1;PMS_P2;Temp;Humidity;BMP_temperature;BMP_pressure;BME280_temperature;BME280_humidity;BME280_pressure;Samples;Min_cycle;Max_cycle;Signal;HPM_P1;HPM_P2
2022/12/14 00:01:20;;;;;;;39.42;23.27;;;-5.80;99.90;;;;;;5028278;28;20034;-51
2022/12/14 00:03:46;;;;;;;44.65;25.30;;;-5.90;99.90;;;;;;5028450;28;20021;-54
2022/12/14 00:06:19;;;;;;;41.85;25.98;;;-5.90;99.90;;;;;;5028187;28;20434;-52
2022/12/14 00:08:46;;;;;;;40.72;24.98;;;-5.90;99.90;;;;;;5028556;28;20096;-52
2022/12/14 00:11:13;;;;;;;38.10;24.40;;;-5.90;99.90;;;;;;5028035;28;20053;-51
2022/12/14 00:13:40;;;;;;;35.75;23.45;;;-6.00;99.90;;;;;;5028278;28;20481;-50
2022/12/14 00:16:11;;;;;;;42.78;25.55;;;-6.00;99.90;;;;;;5026782;28;20041;-50
2022/12/14 00:18:38;;;;;;;43.70;26.00;;;-5.90;99.90;;;;;;5028416;28;20036;-52
2022/12/14 00:21:09;;;;;;;51.75;25.85;;;-5.90;99.90;;;;;;5028179;28;20033;-54
2022/12/14 00:23:36;;;;;;;46.47;26.52;;;-5.90;99.90;;;;;;5028134;28;20029;-52
2022/12/14 00:26:15;;;;;;;44.22;25.70;;;-5.90;99.90;;;;;;5028413;28;20017;-48
2022/12/14 00:28:41;;;;;;;49.25;27.20;;;-5.90;99.90;;;;;;5031687;28;20021;-57
2022/12/14 00:31:08;;;;;;;42.50;25.50;;;-5.80;99.90;;;;;;5031530;28;20036;-52
2022/12/14 00:33:34;;;;;;;56.85;26.65;;;-5.80;99.90;;;;;;5031499;28;20021;-53
2022/12/14 00:36:01;;;;;;;42.22;25.80;;;-5.80;99.90;;;;;;5031370;28;20040;-55
2022/12/14 00:38:27;;;;;;;48.25;26.75;;;-5.80;99.90;;;;;;5030347;28;20071;-52
2022/12/14 00:40:53;;;;;;;45.78;27.00;;;-5.80;99.90;;;;;;5031410;28;20049;-54
2022/12/14 00:43:19;;;;;;;43.72;26.15;;;-5.80;99.90;;;;;;5031166;28;20025;-54
2022/12/14 00:45:45;;;;;;;41.97;25.80;;;-5.80;99.90;;;;;;5031437;28;20025;-53
2022/12/14 00:48:12;;;;;;;50.90;27.05;;;-5.90;99.90;;;;;;5031239;28;20170;-55
2022/12/14 00:50:38;;;;;;;42.05;25.65;;;-5.90;99.90;;;;;;5031231;28;20077;-54
2022/12/14 00:53:04;;;;;;;44.22;25.73;;;-5.90;99.90;;;;;;5031069;28;20116;-53
2022/12/14 00:55:35;;;;;;;54.20;27.65;;;-5.90;99.90;;;;;;5031227;28;20460;-53
2022/12/14 00:58:00;;;;;;;51.20;27.92;;;-6.00;99.90;;;;;;5030978;28;20162;-53
2022/12/14 01:00:26;;;;;;;49.03;27.98;;;-5.90;99.90;;;;;;5031259;28;20112;-54
2022/12/14 01:02:52;;;;;;;53.78;28.30;;;-5.90;99.90;;;;;;5031117;28;20126;-55
2022/12/14 01:05:17;;;;;;;54.58;29.10;;;-5.90;99.90;;;;;;5030938;28;20124;-53
2022/12/14 01:07:43;;;;;;;55.28;28.50;;;-5.90;99.90;;;;;;5029636;28;20116;-51
2022/12/14 01:10:08;;;;;;;46.40;28.25;;;-5.90;99.90;;;;;;5030887;28;20112;-52
2022/12/14 01:12:34;;;;;;;51.60;29.27;;;-6.00;99.90;;;;;;5030701;28;20046;-51
2022/12/14 01:15:00;;;;;;;55.08;29.48;;;-5.90;99.90;;;;;;5030795;28;20036;-49
2022/12/14 01:17:25;;;;;;;46.75;28.42;;;-5.90;99.90;;;;;;5030885;28;20022;-55
2022/12/14 01:19:51;;;;;;;46.47;27.52;;;-5.80;99.90;;;;;;5030681;28;20044;-51
2022/12/14 01:22:17;;;;;;;48.83;28.67;;;-5.90;99.90;;;;;;5030712;28;20430;-53
2022/12/14 01:24:43;;;;;;;48.25;29.50;;;-5.90;99.90;;;;;;5030719;28;20120;-53
2022/12/14 01:27:09;;;;;;;56.75;29.17;;;-5.90;99.90;;;;;;5030538;28;20028;-54
2022/12/14 01:29:35;;;;;;;57.25;29.50;;;-5.90;99.90;;;;;;5030734;28;20465;-54
2022/12/14 01:32:01;;;;;;;52.75;30.27;;;-5.90;99.90;;;;;;5030559;28;20053;-54
2022/12/14 01:34:27;;;;;;;54.67;29.75;;;-5.80;99.90;;;;;;5030734;28;20075;-52
2022/12/14 01:36:52;;;;;;;61.13;32.60;;;-5.80;99.90;;;;;;5030580;28;20026;-50
2022/12/14 01:39:18;;;;;;;66.40;30.77;;;-5.70;99.90;;;;;;5029181;28;20086;-50
2022/12/14 01:41:48;;;;;;;54.80;31.40;;;-5.80;99.90;;;;;;5029219;28;20074;-52
2022/12/14 01:44:13;;;;;;;61.33;32.00;;;-5.70;99.90;;;;;;5030314;28;20059;-49
2022/12/14 01:46:39;;;;;;;48.28;29.25;;;-5.70;99.90;;;;;;5030493;28;20063;-50
2022/12/14 01:49:10;;;;;;;52.60;29.30;;;-5.70;99.90;;;;;;5030213;28;20045;-50
2022/12/14 01:51:37;;;;;;;60.88;30.33;;;-5.60;99.90;;;;;;5042663;28;20050;-55
2022/12/14 01:54:07;;;;;;;49.92;28.75;;;-5.60;99.90;;;;;;5048888;28;20415;-52
2022/12/14 01:56:36;;;;;;;52.67;28.50;;;-5.70;99.90;;;;;;5050332;28;20552;-52
2022/12/14 01:59:07;;;;;;;46.17;26.90;;;-5.70;99.90;;;;;;5049966;28;20384;-53
2022/12/14 02:01:33;;;;;;;50.05;29.15;;;-5.60;99.90;;;;;;5049784;28;20021;-55
2022/12/14 02:04:00;;;;;;;58.83;29.88;;;-5.70;99.90;;;;;;5049049;28;20532;-53
2022/12/14 02:06:34;;;;;;;49.72;30.67;;;-5.70;99.90;;;;;;5049058;28;20021;-54
2022/12/14 02:09:00;;;;;;;;;;;-5.70;99.90;;;;;;5049988;28;20380;-56
2022/12/14 02:11:39;;;;;;;55.83;29.02;;;-5.70;99.90;;;;;;5048991;28;19917;-50
2022/12/14 02:14:05;;;;;;;58.30;28.70;;;-5.70;99.90;;;;;;5048762;28;20049;-52
2022/12/14 02:16:31;;;;;;;53.60;31.77;;;-5.70;99.90;;;;;;5049016;28;20483;-52
2022/12/14 02:18:57;;;;;;;52.20;29.63;;;-5.60;99.90;;;;;;5049071;28;20111;-55
2022/12/14 02:22:00;;;;;;;58.33;31.05;;;-5.60;99.90;;;;;;5049745;28;20053;-54
2022/12/14 02:24:52;;;;;;;49.80;28.75;;;-5.60;99.90;;;;;;5049627;28;20421;-53
2022/12/14 02:27:55;;;;;;;57.25;31.88;;;-5.60;99.90;;;;;;5020940;28;20142;-54
2022/12/14 02:30:23;;;;;;;53.50;31.43;;;-5.60;99.90;;;;;;5049612;28;20432;-50
2022/12/14 02:33:24;;;;;;;62.08;31.50;;;-5.50;99.90;;;;;;5049697;28;20025;-52
2022/12/14 02:36:02;;;;;;;53.35;30.30;;;-5.50;99.90;;;;;;5049427;28;20111;-53
2022/12/14 02:38:53;;;;;;;46.65;29.73;;;-5.60;99.90;;;;;;5049546;28;20028;-54
2022/12/14 02:41:37;;;;;;;45.60;29.00;;;-5.60;99.90;;;;;;5049189;28;20537;-56
2022/12/14 02:44:38;;;;;;;54.03;31.17;;;-5.50;99.90;;;;;;5049148;28;20029;-52
2022/12/14 02:47:20;;;;;;;52.42;31.02;;;-5.50;99.90;;;;;;5049212;28;20244;-52
2022/12/14 02:49:59;;;;;;;53.08;29.23;;;-5.60;99.90;;;;;;5049005;28;20049;-51
2022/12/14 02:52:31;;;;;;;50.97;29.40;;;-5.50;99.90;;;;;;5049252;28;20032;-54
2022/12/14 02:55:15;;;;;;;52.00;30.20;;;-5.50;99.90;;;;;;5049256;28;20029;-54
2022/12/14 02:57:52;;;;;;;53.92;29.00;;;-5.50;99.90;;;;;;5049242;28;20025;-54
2022/12/14 03:00:19;;;;;;;51.83;29.80;;;-5.40;99.90;;;;;;5048915;28;20494;-54
2022/12/14 03:02:46;;;;;;;54.13;31.58;;;-5.40;99.90;;;;;;5049092;28;20033;-54
2022/12/14 03:05:12;;;;;;;46.78;29.38;;;-5.40;99.90;;;;;;5049028;28;20093;-51
2022/12/14 03:07:43;;;;;;;44.22;26.88;;;-5.40;99.90;;;;;;5049087;28;20492;-55
2022/12/14 03:10:09;;;;;;;41.22;27.23;;;-5.50;99.90;;;;;;5049048;28;20047;-52
2022/12/14 03:12:39;;;;;;;49.47;27.30;;;-5.40;99.90;;;;;;5048830;28;20480;-51
2022/12/14 03:15:07;;;;;;;42.88;29.23;;;-5.40;99.90;;;;;;5048905;28;20500;-52
2022/12/14 03:17:33;;;;;;;41.42;26.75;;;-5.50;99.90;;;;;;5049060;28;20475;-52
2022/12/14 03:20:11;;;;;;;46.97;28.60;;;-5.40;99.90;;;;;;5048849;28;20108;-53
2022/12/14 03:23:05;;;;;;;45.90;27.58;;;-5.40;99.90;;;;;;5048799;28;20101;-54
2022/12/14 03:25:38;;;;;;;;;;;-5.50;99.90;;;;;;5049345;28;20111;-52
2022/12/14 03:28:33;;;;;;;44.53;27.42;;;-5.40;99.90;;;;;;5048691;28;19917;-51
2022/12/14 03:31:05;;;;;;;44.97;26.92;;;-5.40;99.90;;;;;;5017141;28;20037;-52
2022/12/14 03:33:33;;;;;;;42.22;28.33;;;-5.30;99.90;;;;;;5048843;28;20048;-53
2022/12/14 03:36:23;;;;;;;47.40;27.65;;;-5.30;99.90;;;;;;5048395;28;20050;-53
2022/12/14 03:38:51;;;;;;;52.47;28.55;;;-5.30;99.90;;;;;;5048736;28;20033;-55
2022/12/14 03:41:32;;;;;;;45.95;28.88;;;-5.30;99.90;;;;;;5048308;28;20170;-53
2022/12/14 03:43:57;;;;;;;51.92;28.40;;;-5.20;99.90;;;;;;5048267;28;20029;-53
2022/12/14 03:46:29;;;;;;;48.22;30.38;;;-5.20;99.90;;;;;;5048502;28;20046;-51
2022/12/14 03:49:03;;;;;;;50.50;31.45;;;-5.30;99.90;;;;;;5048625;28;20022;-54
2022/12/14 03:51:29;;;;;;;52.63;31.17;;;-5.30;99.90;;;;;;5048579;28;20024;-54
2022/12/14 03:54:11;;;;;;;47.28;29.23;;;-5.30;99.90;;;;;;5048379;28;20108;-52
2022/12/14 03:57:02;;;;;;;43.63;27.90;;;-5.30;99.90;;;;;;5048348;28;20076;-54
2022/12/14 04:00:06;;;;;;;45.10;28.00;;;-5.40;99.90;;;;;;5048427;28;20112;-56
2022/12/14 04:02:46;;;;;;;60.78;29.70;;;-5.30;99.90;;;;;;4989108;28;20034;-53
2022/12/14 04:05:24;;;;;;;45.53;27.42;;;-5.30;99.90;;;;;;5046161;28;20044;-55
2022/12/14 04:08:11;;;;;;;48.97;29.17;;;-5.20;99.90;;;;;;5050519;28;20029;-53
2022/12/14 04:19:23;;;;;;;46.28;27.23;;;-5.20;99.90;;;;;;5051544;28;20040;-53
2022/12/14 04:22:00;;;;;;;45.58;27.13;;;-5.20;99.90;;;;;;5051524;28;20069;-56
2022/12/14 04:31:09;;;;;;;52.30;29.75;;;-5.20;99.90;;;;;;5051440;28;20094;-54
2022/12/14 04:33:45;;;;;;;44.40;28.33;;;-5.20;99.90;;;;;;5051570;28;20029;-53
2022/12/14 04:36:31;;;;;;;50.90;29.20;;;-5.20;99.90;;;;;;5051466;28;20037;-55
2022/12/14 04:39:07;;;;;;;44.65;26.52;;;-5.20;99.90;;;;;;5051345;28;20013;-51
2022/12/14 04:41:39;;;;;;;51.38;28.25;;;-5.20;99.90;;;;;;5050030;28;20536;-53
2022/12/14 04:44:22;;;;;;;48.25;29.27;;;-5.20;99.90;;;;;;5051180;28;20033;-52
2022/12/14 04:46:51;;;;;;;47.78;28.02;;;-5.30;99.90;;;;;;5051319;28;20027;-55
2022/12/14 04:49:23;;;;;;;50.75;29.13;;;-5.20;99.90;;;;;;5049856;28;20033;-51
2022/12/14 04:52:00;;;;;;;49.55;27.35;;;-5.10;99.90;;;;;;5051104;28;20025;-53
2022/12/14 04:54:42;;;;;;;43.15;26.20;;;-5.10;99.90;;;;;;5051217;28;20021;-52
2022/12/14 04:57:22;;;;;;;45.25;26.95;;;-5.10;99.90;;;;;;5050862;28;20025;-56
2022/12/14 04:59:49;;;;;;;40.10;26.05;;;-5.20;99.90;;;;;;5050971;28;20033;-51
2022/12/14 05:02:35;;;;;;;41.35;26.98;;;-5.20;99.90;;;;;;5051022;28;20341;-52
2022/12/14 05:05:04;;;;;;;54.55;27.13;;;-5.10;99.90;;;;;;5050744;28;20029;-54
2022/12/14 05:07:51;;;;;;;42.47;27.55;;;-5.10;99.90;;;;;;5049797;28;20516;-53
2022/12/14 05:10:31;;;;;;;46.22;25.42;;;-5.10;99.90;;;;;;5050886;28;20021;-55
2022/12/14 05:13:01;;;;;;;45.95;27.58;;;-5.10;99.90;;;;;;5050359;28;20041;-50
2022/12/14 05:15:34;;;;;;;45.42;28.50;;;-5.10;99.90;;;;;;5050904;28;20022;-51
2022/12/14 05:18:04;;;;;;;45.75;29.95;;;-5.10;99.90;;;;;;5050668;28;20162;-53
2022/12/14 05:20:30;;;;;;;48.47;29.80;;;-5.10;99.90;;;;;;5050549;28;20056;-54
2022/12/14 05:22:55;;;;;;;45.50;28.73;;;-5.10;99.90;;;;;;5050534;28;20052;-50
2022/12/14 05:25:21;;;;;;;59.28;32.72;;;-5.10;99.90;;;;;;5050169;28;20036;-53
2022/12/14 05:27:47;;;;;;;47.13;28.05;;;-5.00;99.90;;;;;;5050730;28;20038;-50
2022/12/14 05:30:13;;;;;;;52.83;30.13;;;-5.00;99.90;;;;;;5050248;28;20032;-54
2022/12/14 05:32:38;;;;;;;50.20;30.30;;;-5.00;99.90;;;;;;5050412;28;20036;-53
2022/12/14 05:35:05;;;;;;;55.53;31.55;;;-5.00;99.90;;;;;;5050400;28;20034;-53
2022/12/14 05:37:31;;;;;;;45.58;26.70;;;-5.00;99.90;;;;;;5050455;28;20065;-55
2022/12/14 05:39:56;;;;;;;41.88;27.33;;;-5.00;99.90;;;;;;5050325;28;20114;-52
2022/12/14 05:42:22;;;;;;;49.15;29.00;;;-4.90;99.90;;;;;;5050292;28;20029;-53
2022/12/14 05:44:48;;;;;;;44.67;28.77;;;-5.00;99.90;;;;;;5050180;28;20025;-52
2022/12/14 05:47:14;;;;;;;52.45;26.95;;;-5.00;99.90;;;;;;5049537;28;20029;-51
2022/12/14 05:49:40;;;;;;;47.58;28.50;;;-5.00;99.90;;;;;;5049131;28;20048;-55
2022/12/14 05:52:06;;;;;;;49.35;27.58;;;-5.00;99.90;;;;;;5048941;28;20494;-52
2022/12/14 05:54:31;;;;;;;45.25;28.30;;;-5.00;99.90;;;;;;5048402;28;20123;-56
2022/12/14 05:56:57;;;;;;;43.40;27.15;;;-4.90;99.90;;;;;;5049047;28;20108;-56
2022/12/14 05:59:22;;;;;;;43.83;25.95;;;-4.90;99.90;;;;;;5048844;28;20032;-56
2022/12/14 06:01:49;;;;;;;41.25;26.67;;;-4.90;99.90;;;;;;5047554;28;20120;-54
2022/12/14 06:04:17;;;;;;;48.08;28.30;;;-4.90;99.90;;;;;;5048550;28;20032;-52
2022/12/14 06:06:43;;;;;;;46.85;27.30;;;-4.90;99.90;;;;;;5049018;28;20108;-55
2022/12/14 06:09:10;;;;;;;46.15;28.17;;;-5.00;99.90;;;;;;5048497;28;20105;-54
2022/12/14 06:11:37;;;;;;;44.92;28.23;;;-4.90;99.90;;;;;;5048680;28;20037;-56
2022/12/14 06:14:04;;;;;;;46.88;28.60;;;-4.90;99.90;;;;;;5048384;28;20424;-56
2022/12/14 06:16:30;;;;;;;44.58;28.60;;;-5.00;99.90;;;;;;5048345;28;20112;-56
2022/12/14 06:18:58;;;;;;;47.78;28.77;;;-4.90;99.90;;;;;;5048699;28;20111;-54
2022/12/14 06:21:27;;;;;;;51.40;28.92;;;-4.90;99.90;;;;;;5048375;28;20043;-56
2022/12/14 06:23:54;;;;;;;48.90;28.27;;;-4.90;99.90;;;;;;5047993;28;20040;-54
2022/12/14 06:26:20;;;;;;;45.78;27.75;;;-4.90;99.90;;;;;;5048289;28;20524;-56
2022/12/14 06:28:46;;;;;;;49.30;27.92;;;-4.80;99.90;;;;;;5048730;28;20077;-55
2022/12/14 06:31:20;;;;;;;59.38;34.08;;;-4.80;99.90;;;;;;5048024;28;20510;-54
2022/12/14 06:33:46;;;;;;;52.45;31.35;;;-4.80;99.90;;;;;;5048277;28;20029;-54
2022/12/14 06:36:22;;;;;;;48.58;28.67;;;-4.80;99.90;;;;;;5048401;28;20045;-54
2022/12/14 06:38:55;;;;;;;43.63;28.33;;;-4.80;99.90;;;;;;5048362;28;20117;-52
2022/12/14 06:41:22;;;;;;;47.70;30.10;;;-4.80;99.90;;;;;;5048021;28;20369;-53
2022/12/14 06:43:48;;;;;;;48.50;29.17;;;-4.70;99.90;;;;;;5048230;28;20232;-54
2022/12/14 06:46:18;;;;;;;53.30;30.15;;;-4.70;99.90;;;;;;5047955;28;20432;-53
2022/12/14 06:48:48;;;;;;;49.83;29.15;;;-4.70;99.90;;;;;;5048518;28;20029;-56
2022/12/14 06:51:14;;;;;;;49.15;30.40;;;-4.70;99.90;;;;;;5047838;28;20025;-52
2022/12/14 06:53:39;;;;;;;48.25;28.13;;;-4.70;99.90;;;;;;5048236;28;20368;-53
2022/12/14 06:56:14;;;;;;;50.08;29.48;;;-4.70;99.90;;;;;;5047896;28;20029;-55
2022/12/14 06:58:40;;;;;;;44.75;26.67;;;-4.70;99.90;;;;;;5047910;28;20040;-54
2022/12/14 07:01:08;;;;;;;51.95;30.35;;;-4.60;99.90;;;;;;5048017;28;20029;-55
2022/12/14 07:03:34;;;;;;;43.83;29.30;;;-4.60;99.90;;;;;;5047819;28;20025;-51
2022/12/14 07:06:02;;;;;;;45.28;28.85;;;-4.50;99.90;;;;;;5047712;28;20031;-57
2022/12/14 07:08:29;;;;;;;50.08;29.08;;;-4.60;99.90;;;;;;5047876;28;20028;-55
2022/12/14 07:10:55;;;;;;;47.20;29.55;;;-4.60;99.90;;;;;;5046203;28;20475;-54
2022/12/14 07:13:21;;;;;;;49.70;29.15;;;-4.50;99.90;;;;;;5047878;28;20041;-56
2022/12/14 07:15:51;;;;;;;49.50;28.88;;;-4.50;99.90;;;;;;5047635;28;20025;-57
2022/12/14 07:18:18;;;;;;;45.05;27.08;;;-4.40;99.90;;;;;;5047519;28;20081;-56
2022/12/14 07:20:44;;;;;;;49.78;29.40;;;-4.40;99.90;;;;;;5047810;28;20021;-57
2022/12/14 07:23:10;;;;;;;43.13;26.10;;;-4.30;99.90;;;;;;5046004;28;20534;-56
2022/12/14 07:25:35;;;;;;;43.60;29.33;;;-4.30;99.90;;;;;;5047850;28;20021;-51
2022/12/14 07:28:01;;;;;;;53.80;30.25;;;-4.40;99.90;;;;;;5047301;28;20060;-54
2022/12/14 07:30:26;;;;;;;46.45;30.30;;;-4.40;99.90;;;;;;5047713;28;20103;-55
2022/12/14 07:32:52;;;;;;;50.15;28.55;;;-4.40;99.90;;;;;;5047478;28;20053;-53
2022/12/14 07:35:18;;;;;;;51.03;32.60;;;-4.20;99.90;;;;;;5047587;28;20021;-55
2022/12/14 07:37:43;;;;;;;48.63;30.08;;;-4.20;99.90;;;;;;5047312;28;20048;-56
2022/12/14 07:40:09;;;;;;;48.08;31.35;;;-4.20;99.90;;;;;;5047431;28;20032;-56
2022/12/14 07:42:35;;;;;;;74.85;40.38;;;-4.10;99.90;;;;;;5047371;28;20100;-56
2022/12/14 07:45:01;;;;;;;63.05;38.03;;;-4.10;99.90;;;;;;5046099;28;20423;-53
2022/12/14 07:47:29;;;;;;;61.30;37.15;;;-4.10;99.90;;;;;;5047517;28;20069;-53
2022/12/14 07:49:55;;;;;;;50.05;30.80;;;-4.10;99.90;;;;;;5047276;28;20025;-52
2022/12/14 07:52:21;;;;;;;50.90;31.88;;;-4.00;99.90;;;;;;5046937;28;20491;-56
2022/12/14 07:54:47;;;;;;;44.70;28.70;;;-3.90;99.90;;;;;;5047404;28;20036;-53
2022/12/14 07:57:13;;;;;;;48.75;29.52;;;-4.00;99.90;;;;;;5047389;28;20026;-52
2022/12/14 07:59:38;;;;;;;50.13;31.00;;;-3.90;99.90;;;;;;5047242;28;20538;-53
2022/12/14 08:02:04;;;;;;;50.45;29.30;;;-3.80;99.90;;;;;;5047198;28;20056;-53
2022/12/14 08:04:30;;;;;;;59.05;33.13;;;-3.80;99.90;;;;;;5047091;28;20496;-55
2022/12/14 08:06:56;;;;;;;71.53;38.90;;;-3.80;99.90;;;;;;5047088;28;20069;-56
2022/12/14 08:09:21;;;;;;;60.40;36.38;;;-3.70;99.90;;;;;;5047040;28;20014;-51
2022/12/14 08:11:47;;;;;;;54.42;32.72;;;-3.70;99.90;;;;;;5045655;28;20407;-53
2022/12/14 08:14:18;;;;;;;51.97;32.15;;;-3.70;99.90;;;;;;5046849;28;20029;-52
2022/12/14 08:16:45;;;;;;;51.85;31.10;;;-3.70;99.90;;;;;;5047181;28;20024;-52
2022/12/14 08:19:11;;;;;;;44.58;29.27;;;-3.50;99.90;;;;;;5046928;28;20532;-54
2022/12/14 08:21:37;;;;;;;48.15;30.23;;;-3.50;99.90;;;;;;5046930;28;20064;-50
2022/12/14 08:24:03;;;;;;;47.10;32.22;;;-3.60;99.90;;;;;;5045276;28;20389;-50
2022/12/14 08:26:29;;;;;;;47.13;31.05;;;-3.60;99.90;;;;;;5046996;28;20104;-53
2022/12/14 08:28:55;;;;;;;53.35;30.83;;;-3.50;99.90;;;;;;5045828;28;20056;-51
2022/12/14 08:31:23;;;;;;;50.42;28.60;;;-3.40;99.90;;;;;;5046856;28;20025;-54
2022/12/14 08:33:50;;;;;;;46.60;27.65;;;-3.30;99.90;;;;;;5046907;28;20029;-53
2022/12/14 08:36:25;;;;;;;49.10;30.55;;;-3.20;99.90;;;;;;5046574;28;20063;-53
2022/12/14 08:39:12;;;;;;;46.58;29.65;;;-3.10;99.90;;;;;;5046717;28;20089;-53
2022/12/14 08:41:37;;;;;;;49.05;32.60;;;-3.10;99.90;;;;;;5045555;28;20532;-54
2022/12/14 08:44:04;;;;;;;47.78;30.23;;;-3.10;99.90;;;;;;5046379;28;20037;-53
2022/12/14 08:46:31;;;;;;;49.17;27.52;;;-3.00;99.90;;;;;;5046618;28;20126;-52
2022/12/14 08:48:57;;;;;;;46.17;26.95;;;-3.00;99.90;;;;;;5048611;28;20486;-53
2022/12/14 08:51:25;;;;;;;43.80;29.30;;;-3.00;99.90;;;;;;5049867;28;20021;-53
2022/12/14 08:53:51;;;;;;;50.53;31.60;;;-2.90;99.90;;;;;;5050160;28;20029;-52
2022/12/14 08:56:20;;;;;;;61.28;32.97;;;-3.00;99.90;;;;;;5049546;28;20089;-53
2022/12/14 08:58:46;;;;;;;303.98;181.60;;;-3.00;99.90;;;;;;5050058;28;20093;-53
2022/12/14 09:01:18;;;;;;;83.53;52.65;;;-2.90;99.90;;;;;;5049799;28;20062;-55
2022/12/14 09:03:45;;;;;;;72.28;47.72;;;-2.80;99.90;;;;;;5049845;28;20478;-54
2022/12/14 09:06:13;;;;;;;57.22;37.30;;;-2.70;99.90;;;;;;5048474;28;20036;-52
2022/12/14 09:08:39;;;;;;;47.38;30.27;;;-2.50;99.90;;;;;;5049657;28;20020;-52
2022/12/14 09:11:08;;;;;;;50.35;32.03;;;-2.40;99.90;;;;;;5049487;28;20041;-53
2022/12/14 09:13:34;;;;;;;44.65;28.02;;;-2.50;99.90;;;;;;5049500;28;20071;-55
2022/12/14 09:16:15;;;;;;;38.80;26.98;;;-2.40;99.90;;;;;;5049521;28;20049;-51
2022/12/14 09:18:42;;;;;;;43.97;25.35;;;-2.40;99.90;;;;;;5049350;28;20029;-55
2022/12/14 09:21:08;;;;;;;36.58;25.02;;;-2.10;99.90;;;;;;5049276;28;20168;-55
2022/12/14 09:23:35;;;;;;;39.25;24.92;;;-2.10;99.90;;;;;;5049504;28;20499;-54
2022/12/14 09:26:18;;;;;;;38.80;26.10;;;-2.20;99.90;;;;;;5049128;28;20036;-53
2022/12/14 09:28:49;;;;;;;;;;;-2.40;99.90;;;;;;5049930;28;20025;-53
2022/12/14 09:31:16;;;;;;;45.28;24.92;;;-2.40;99.90;;;;;;5049391;28;19905;-56
2022/12/14 09:33:42;;;;;;;36.35;24.52;;;-2.40;99.90;;;;;;5049412;28;20478;-55
2022/12/14 09:36:11;;;;;;;55.42;30.10;;;-2.20;99.90;;;;;;5049197;28;20060;-55
2022/12/14 09:38:38;;;;;;;60.08;31.77;;;-1.90;99.90;;;;;;5049041;28;20032;-54
2022/12/14 09:41:15;;;;;;;41.17;25.38;;;-1.70;99.90;;;;;;5049230;28;20024;-53
2022/12/14 09:43:46;;;;;;;38.38;25.70;;;-1.60;99.90;;;;;;5049027;28;20033;-52
2022/12/14 09:46:37;;;;;;;43.03;24.70;;;-1.70;99.90;;;;;;5048922;28;20145;-52
2022/12/14 09:49:02;;;;;;;36.88;23.45;;;-1.50;99.90;;;;;;5048828;28;20021;-50
2022/12/14 09:51:33;;;;;;;36.05;23.08;;;-1.20;99.90;;;;;;5049374;28;20533;-52
2022/12/14 09:54:05;;;;;;;34.05;23.33;;;-1.00;99.90;;;;;;5048862;28;20029;-55
2022/12/14 09:56:32;;;;;;;31.27;20.25;;;-1.00;99.90;;;;;;5047809;28;20089;-53
2022/12/14 09:59:00;;;;;;;34.28;23.60;;;-1.10;99.90;;;;;;5047767;28;20029;-54
2022/12/14 10:01:53;;;;;;;35.70;23.30;;;-1.30;99.90;;;;;;5048972;28;20494;-50
2022/12/14 10:04:38;;;;;;;41.50;23.17;;;-1.10;99.90;;;;;;5021782;28;20041;-52
2022/12/14 10:07:41;;;;;;;37.33;23.38;;;-1.00;99.90;;;;;;5048896;28;20248;-51
2022/12/14 10:10:23;;;;;;;36.38;21.92;;;-0.90;99.90;;;;;;5014837;28;20446;-54
2022/12/14 10:12:55;;;;;;;35.88;20.65;;;-0.80;99.90;;;;;;5048760;28;20144;-52
2022/12/14 10:15:35;;;;;;;29.70;19.60;;;-0.90;99.90;;;;;;5048800;28;20429;-52
2022/12/14 10:18:04;;;;;;;30.55;19.10;;;-0.80;99.90;;;;;;5048446;28;20224;-54
2022/12/14 10:20:54;;;;;;;28.90;19.38;;;-1.00;99.90;;;;;;5048595;28;20013;-54
2022/12/14 10:23:23;;;;;;;39.97;19.45;;;-0.90;99.90;;;;;;5048287;28;20437;-50
2022/12/14 10:25:53;;;;;;;27.63;19.20;;;-1.00;99.90;;;;;;5048658;28;20082;-50
2022/12/14 10:28:32;;;;;;;25.73;17.50;;;-1.00;99.90;;;;;;5048357;28;20074;-51
2022/12/14 10:31:01;;;;;;;28.33;19.35;;;-1.00;99.90;;;;;;5048284;28;20357;-52
2022/12/14 10:33:31;;;;;;;32.83;18.83;;;-0.90;99.90;;;;;;5048637;28;20021;-50
2022/12/14 10:36:09;;;;;;;32.72;21.05;;;-0.60;99.90;;;;;;5048368;28;20084;-52
2022/12/14 10:39:05;;;;;;;25.02;18.63;;;-0.70;99.90;;;;;;5048201;28;20096;-53
2022/12/14 10:42:13;;;;;;;32.47;20.85;;;-1.00;99.90;;;;;;5048717;28;20223;-55
2022/12/14 10:44:53;;;;;;;29.05;19.13;;;-0.80;99.90;;;;;;5014153;28;20036;-55
2022/12/14 10:47:30;;;;;;;28.90;19.55;;;-0.80;99.90;;;;;;5048203;28;20117;-54
2022/12/14 10:50:14;;;;;;;30.80;19.90;;;-0.70;99.90;;;;;;5048262;28;20054;-52
2022/12/14 10:52:41;;;;;;;31.83;21.95;;;-0.60;99.90;;;;;;5048380;28;20445;-52
2022/12/14 10:55:36;;;;;;;29.38;20.40;;;-0.70;99.90;;;;;;5048116;28;20033;-55
2022/12/14 10:58:02;;;;;;;27.50;19.42;;;-0.70;99.90;;;;;;5042365;28;20035;-52
2022/12/14 11:00:28;;;;;;;30.77;19.60;;;-0.40;99.90;;;;;;5047882;28;20033;-53
2022/12/14 11:02:56;;;;;;;24.25;18.00;;;-0.30;99.90;;;;;;5048506;28;20427;-50
2022/12/14 11:05:44;;;;;;;30.50;20.63;;;0.00;99.90;;;;;;5046366;28;20070;-49
2022/12/14 11:08:41;;;;;;;30.50;20.13;;;0.00;99.90;;;;;;5047497;28;20025;-55
2022/12/14 11:11:12;;;;;;;31.13;20.48;;;0.10;99.90;;;;;;5046089;28;20090;-52
2022/12/14 11:13:38;;;;;;;28.85;20.45;;;0.10;99.90;;;;;;5046458;28;20025;-54
2022/12/14 11:16:23;;;;;;;30.38;21.17;;;0.00;99.90;;;;;;5047781;28;20487;-52
2022/12/14 11:18:57;;;;;;;29.15;20.40;;;0.00;99.90;;;;;;5047901;28;20073;-53
2022/12/14 11:21:29;;;;;;;37.42;22.70;;;-0.20;99.90;;;;;;5047658;28;20025;-51
2022/12/14 11:23:55;;;;;;;33.83;22.25;;;-0.50;99.90;;;;;;5047426;28;20032;-52
2022/12/14 11:26:38;;;;;;;33.15;22.23;;;-0.70;99.90;;;;;;5047491;28;20387;-51
2022/12/14 11:29:06;;;;;;;;;;;-0.40;99.90;;;;;;5047837;28;20486;-51
2022/12/14 11:31:42;;;;;;;33.22;21.08;;;-0.20;99.90;;;;;;5047608;28;19992;-54
2022/12/14 11:34:32;;;;;;;34.13;21.90;;;-0.20;99.90;;;;;;5047779;28;20498;-53
2022/12/14 11:37:25;;;;;;;32.17;22.05;;;0.00;99.90;;;;;;5047559;28;20032;-53
2022/12/14 11:39:55;;;;;;;34.25;22.88;;;0.20;99.90;;;;;;5040415;28;20044;-50
2022/12/14 11:42:21;;;;;;;30.75;20.98;;;0.60;99.90;;;;;;5047283;28;20036;-55
2022/12/14 11:44:48;;;;;;;41.03;22.83;;;0.70;99.90;;;;;;5047304;28;20112;-54
2022/12/14 11:47:20;;;;;;;32.38;22.88;;;0.80;99.90;;;;;;5047203;28;20078;-53
2022/12/14 11:49:53;;;;;;;38.95;23.95;;;1.00;99.90;;;;;;5045990;28;20025;-53
2022/12/14 11:52:24;;;;;;;36.03;24.65;;;0.60;99.90;;;;;;5047297;28;20105;-54
2022/12/14 11:54:56;;;;;;;33.45;23.13;;;0.50;99.90;;;;;;5046047;28;20480;-50
2022/12/14 11:57:21;;;;;;;36.10;25.80;;;0.40;99.90;;;;;;5046929;28;20029;-53
2022/12/14 11:59:52;;;;;;;38.63;24.65;;;0.50;99.90;;;;;;5047254;28;20029;-53
2022/12/14 12:02:34;;;;;;;46.85;28.85;;;0.40;99.90;;;;;;5047026;28;20032;-51
2022/12/14 12:05:15;;;;;;;40.30;24.83;;;0.30;99.90;;;;;;5047228;28;20477;-53
2022/12/14 12:07:50;;;;;;;35.20;23.38;;;0.70;99.90;;;;;;5047200;28;20032;-51
2022/12/14 12:10:32;;;;;;;38.42;24.63;;;1.10;99.90;;;;;;5046999;28;20069;-54
2022/12/14 12:13:04;;;;;;;34.58;24.15;;;1.00;99.90;;;;;;5047124;28;20116;-52
2022/12/14 12:15:36;;;;;;;35.70;24.65;;;1.00;99.90;;;;;;5047045;28;20025;-55
2022/12/14 12:18:35;;;;;;;39.08;26.73;;;1.10;99.90;;;;;;5047354;28;20383;-53
2022/12/14 12:21:12;;;;;;;38.83;25.90;;;1.20;99.90;;;;;;5034808;28;20343;-55
2022/12/14 12:23:50;;;;;;;39.35;25.60;;;1.00;99.90;;;;;;5049804;28;20025;-55
2022/12/14 12:26:29;;;;;;;40.88;25.67;;;0.80;99.90;;;;;;5050558;28;20025;-55
2022/12/14 12:29:12;;;;;;;37.65;26.73;;;0.50;99.90;;;;;;5050272;28;20017;-52
2022/12/14 12:31:47;;;;;;;37.15;25.88;;;0.10;99.90;;;;;;5050147;28;20406;-50
2022/12/14 12:34:18;;;;;;;42.33;26.80;;;0.20;99.90;;;;;;5049987;28;20040;-55
2022/12/14 12:36:46;;;;;;;44.85;28.75;;;0.20;99.90;;;;;;5049055;28;20526;-50
2022/12/14 12:39:15;;;;;;;45.10;29.77;;;0.00;99.90;;;;;;5049994;28;20034;-56
2022/12/14 12:42:08;;;;;;;49.38;27.50;;;-0.20;99.90;;;;;;5050239;28;20051;-50
2022/12/14 12:44:55;;;;;;;81.38;39.67;;;-0.40;99.90;;;;;;5050036;28;20412;-50
2022/12/14 12:47:32;;;;;;;48.50;28.05;;;-0.30;99.90;;;;;;5049818;28;20488;-53
2022/12/14 12:50:05;;;;;;;46.35;28.27;;;-0.30;99.90;;;;;;5050287;28;20128;-57
2022/12/14 12:52:48;;;;;;;42.70;27.67;;;-0.40;99.90;;;;;;5050206;28;20029;-58
2022/12/14 12:55:16;;;;;;;42.30;27.10;;;-0.40;99.90;;;;;;5049700;28;20130;-52
2022/12/14 12:57:46;;;;;;;38.92;25.05;;;-0.50;99.90;;;;;;5049907;28;20028;-54
2022/12/14 13:00:21;;;;;;;38.60;26.08;;;-0.60;99.90;;;;;;5049843;28;20467;-54
2022/12/14 13:02:55;;;;;;;39.67;26.20;;;-0.60;99.90;;;;;;5049712;28;20078;-54
2022/12/14 13:05:25;;;;;;;40.85;25.73;;;-0.70;99.90;;;;;;5049551;28;20093;-50
2022/12/14 13:07:56;;;;;;;45.13;27.98;;;-0.70;99.90;;;;;;5049835;28;20021;-55